Time;durP1;ratioP1;P1;durP2;ratioP2;P2;SDS_P1;SDS_P2;PMS_P1;PMS_P2;Temp;Humidity;BMP_temperature;BMP_pressure;BME280_temperature;BME280_humidity;BME280_pressure;Samples;Min_cycle;Max_cycle;Signal;HPM_P1;HPM_P2
2022/06/12 00:01:07;;;;;;;0.10;0.10;;;;;;;21.42;50.04;101878.63;5107452;28;20101;-32
2022/06/12 00:03:33;;;;;;;0.10;0.10;;;;;;;21.43;49.97;101877.53;5107732;28;20163;-34
2022/06/12 00:06:00;;;;;;;0.10;0.10;;;;;;;21.42;49.98;101885.00;5090849;28;20541;-33
2022/06/12 00:08:27;;;;;;;0.10;0.10;;;;;;;21.42;49.94;101885.00;5093412;28;20084;-34
2022/06/12 00:10:55;;;;;;;0.10;0.10;;;;;;;21.43;49.98;101883.06;5090404;28;20123;-34
2022/06/12 00:13:25;;;;;;;0.10;0.10;;;;;;;21.43;50.22;101877.53;5109191;28;20070;-34
2022/06/12 00:15:52;;;;;;;0.10;0.10;;;;;;;21.43;50.11;101883.91;5105883;28;20071;-34
2022/06/12 00:18:17;;;;;;;0.10;0.10;;;;;;;21.43;49.99;101883.06;5104986;28;20082;-34
2022/06/12 00:20:43;;;;;;;0.10;0.10;;;;;;;21.43;49.98;101885.84;5111128;28;20040;-34
2022/06/12 00:23:12;;;;;;;0.10;0.10;;;;;;;21.43;50.01;101885.84;5108348;28;20048;-34
2022/06/12 00:25:38;;;;;;;0.10;0.10;;;;;;;21.42;50.07;101878.63;5090198;28;20147;-34
2022/06/12 00:28:05;;;;;;;0.20;0.20;;;;;;;21.42;49.91;101886.94;5089717;28;20123;-32
2022/06/12 00:30:31;;;;;;;0.10;0.10;;;;;;;21.42;50.12;101886.94;5111067;28;20043;-34
2022/06/12 00:32:56;;;;;;;0.10;0.10;;;;;;;21.42;49.96;101884.19;5109106;28;20098;-34
2022/06/12 00:35:26;;;;;;;0.10;0.10;;;;;;;21.43;50.04;101891.38;5108899;28;20473;-34
2022/06/12 00:37:52;;;;;;;0.10;0.10;;;;;;;21.41;49.88;101880.56;5092437;28;20044;-34
2022/06/12 00:40:19;;;;;;;0.10;0.10;;;;;;;21.42;49.99;101889.72;5089862;28;20090;-34
2022/06/12 00:42:50;;;;;;;0.10;0.10;;;;;;;21.43;50.14;101880.28;5091806;28;20130;-34
2022/06/12 00:45:39;;;;;;;0.10;0.10;;;;;;;21.43;50.04;101888.59;5106765;28;20067;-33
2022/06/12 00:48:12;;;;;;;0.10;0.10;;;;;;;21.42;50.06;101885.00;5090943;28;20201;-34
2022/06/12 00:50:44;;;;;;;0.10;0.10;;;;;;;21.42;49.98;101885.00;5108998;28;20040;-35
2022/06/12 00:53:16;;;;;;;0.10;0.10;;;;;;;21.42;50.09;101873.94;5090752;28;20079;-32
2022/06/12 00:55:51;;;;;;;0.10;0.10;;;;;;;21.43;49.95;101885.84;5107139;28;20493;-34
2022/06/12 00:58:20;;;;;;;0.10;0.10;;;;;;;21.41;50.04;101877.78;5090044;28;20090;-32
2022/06/12 01:00:47;;;;;;;0.10;0.10;;;;;;;21.42;50.06;101871.16;5107753;28;20078;-35
2022/06/12 01:03:14;;;;;;;0.10;0.10;;;;;;;21.41;50.13;101877.78;5107048;28;20142;-33
2022/06/12 01:06:51;;;;;;;0.10;0.10;;;;;;;21.43;50.04;101877.53;5092117;28;20098;-34
2022/06/12 01:08:28;;;;;;;0.10;0.10;;;;;;;21.42;49.79;101873.94;5099419;28;20096;-33
2022/06/12 01:11:00;;;;;;;0.10;0.10;;;;;;;21.41;50.02;101866.69;5098576;28;20085;-32
2022/06/12 01:13:29;;;;;;;0.10;0.10;;;;;;;21.41;49.91;101875.00;5110644;28;20079;-33
2022/06/12 01:15:59;;;;;;;0.10;0.10;;;;;;;21.42;50.03;101867.56;5095984;28;20537;-34
2022/06/12 01:18:29;;;;;;;0.10;0.10;;;;;;;21.41;50.10;101872.25;5092869;28;20036;-32
2022/06/12 01:21:11;;;;;;;0.10;0.10;;;;;;;21.42;49.91;101870.31;5076364;28;20075;-34
2022/06/12 01:24:05;;;;;;;0.10;0.10;;;;;;;21.41;49.87;101865.88;5097111;28;20493;-34
2022/06/12 01:27:11;;;;;;;0.10;0.10;;;;;;;21.42;50.10;101864.78;5109691;28;20055;-33
2022/06/12 01:32:55;;;;;;;0.10;0.10;;;;;;;21.44;49.96;101871.69;5162341;27;20450;-32
2022/06/12 01:35:27;;;;;;;0.10;0.10;;;;;;;21.45;49.87;101878.91;5142757;27;20050;-32
2022/06/12 01:38:03;;;;;;;0.10;0.10;;;;;;;21.43;49.82;101875.59;5140438;27;20074;-32
2022/06/12 01:40:39;;;;;;;0.10;0.10;;;;;;;21.43;50.00;101871.97;5160978;27;20098;-33
2022/06/12 01:43:13;;;;;;;0.10;0.10;;;;;;;21.42;50.03;101864.78;5119789;27;20135;-32
2022/06/12 01:46:03;;;;;;;0.10;0.10;;;;;;;21.42;49.89;101865.63;5122133;27;20067;-32
2022/06/12 01:48:41;;;;;;;0.10;0.10;;;;;;;21.42;50.06;101862.00;5119237;27;20066;-32
2022/06/12 01:51:19;;;;;;;0.10;0.10;;;;;;;21.42;49.92;101875.88;5119773;27;20438;-32
2022/06/12 01:53:56;;;;;;;0.10;0.10;;;;;;;21.42;49.95;101875.88;5135394;27;20516;-32
2022/06/12 01:56:32;;;;;;;0.10;0.10;;;;;;;21.41;49.96;101872.25;5120136;27;20521;-32
2022/06/12 01:59:12;;;;;;;0.10;0.10;;;;;;;21.41;49.91;101871.41;5120848;27;20660;-32
2022/06/12 02:02:01;;;;;;;0.10;0.10;;;;;;;21.41;49.87;101869.47;5119315;27;20346;-34
2022/06/12 02:04:32;;;;;;;0.10;0.10;;;;;;;21.41;49.96;101861.16;5122577;27;20086;-33
2022/06/12 02:07:06;;;;;;;0.10;0.10;;;;;;;21.41;50.00;101861.16;5138891;27;20077;-31
2022/06/12 02:09:39;;;;;;;0.10;0.10;;;;;;;21.41;50.05;101863.94;5118595;27;20134;-32
2022/06/12 02:15:09;;;;;;;0.10;0.10;;;;;;;21.42;49.84;101859.25;5116110;27;20078;-32
2022/06/12 02:17:41;;;;;;;0.20;0.20;;;;;;;21.40;50.01;101862.25;5115845;27;20056;-32
2022/06/12 02:20:09;;;;;;;0.10;0.10;;;;;;;21.41;50.05;101865.88;5118707;27;20130;-33
2022/06/12 02:22:38;;;;;;;0.10;0.10;;;;;;;21.41;49.94;101863.09;5118502;27;20078;-32
2022/06/12 02:25:11;;;;;;;0.10;0.10;;;;;;;21.40;50.14;101866.97;5121178;27;20083;-32
2022/06/12 02:27:42;;;;;;;0.10;0.10;;;;;;;21.41;49.95;101863.09;5118644;27;20074;-34
2022/06/12 02:30:15;;;;;;;0.10;0.10;;;;;;;21.41;49.88;101860.31;5139657;27;20071;-33
2022/06/12 02:32:56;;;;;;;0.10;0.10;;;;;;;21.42;49.90;101862.00;5134474;27;20043;-33
2022/06/12 02:35:29;;;;;;;0.15;0.15;;;;;;;21.41;49.87;101863.09;5143317;27;20062;-32
2022/06/12 02:38:00;;;;;;;0.10;0.10;;;;;;;21.41;50.05;101861.16;5119131;27;20130;-32
2022/06/12 02:40:30;;;;;;;0.20;0.20;;;;;;;21.41;49.97;101868.63;5142959;27;20164;-32
2022/06/12 02:42:57;;;;;;;0.10;0.10;;;;;;;21.41;50.00;101857.56;5112849;28;20078;-32
2022/06/12 02:45:28;;;;;;;0.10;0.10;;;;;;;21.40;49.80;101853.13;5101886;28;20075;-35
2022/06/12 02:47:54;;;;;;;0.10;0.10;;;;;;;21.41;49.97;101865.88;5103182;28;20138;-36
2022/06/12 02:50:22;;;;;;;0.20;0.20;;;;;;;21.41;49.79;101849.25;5126101;28;20462;-37
2022/06/12 02:53:06;;;;;;;0.10;0.10;;;;;;;21.40;50.11;101844.81;5107090;28;20040;-36
2022/06/12 02:55:56;;;;;;;0.10;0.10;;;;;;;21.40;50.03;101853.94;5088455;28;20134;-35
2022/06/12 02:58:33;;;;;;;0.10;0.10;;;;;;;21.40;50.06;101850.34;5108016;28;20134;-36
2022/06/12 03:01:03;;;;;;;0.10;0.10;;;;;;;21.40;50.18;101856.72;5106081;28;20072;-35
2022/06/12 03:06:17;;;;;;;0.10;0.10;;;;;;;21.40;49.87;101862.25;5161881;27;20357;-32
2022/06/12 03:08:47;;;;;;;0.10;0.10;;;;;;;21.40;49.85;101853.13;5164324;27;20069;-33
2022/06/12 03:11:17;;;;;;;0.13;0.13;;;;;;;21.40;50.09;101861.44;5127509;27;20476;-34
2022/06/12 03:13:44;;;;;;;0.10;0.10;;;;;;;21.40;49.94;101858.66;5143192;27;20138;-34
2022/06/12 03:16:14;;;;;;;0.10;0.10;;;;;;;21.41;49.97;101863.09;5166981;27;20437;-32
2022/06/12 03:18:44;;;;;;;0.10;0.10;;;;;;;21.40;50.04;101864.22;5164351;27;20046;-33
2022/06/12 03:21:21;;;;;;;0.10;0.10;;;;;;;21.41;49.99;101860.31;5145492;27;20075;-32
2022/06/12 03:24:00;;;;;;;0.10;0.10;;;;;;;21.40;50.00;101870.59;5144167;27;20046;-35
2022/06/12 03:26:36;;;;;;;0.32;0.30;;;;;;;21.40;50.02;101866.97;5142625;27;20165;-35
2022/06/12 03:29:38;;;;;;;0.10;0.10;;;;;;;21.40;49.97;101866.97;5142680;27;20125;-35
2022/06/12 03:32:14;;;;;;;0.10;0.10;;;;;;;21.40;50.01;101872.53;5143069;27;20468;-35
2022/06/12 03:34:49;;;;;;;0.15;0.15;;;;;;;21.39;49.90;101868.09;5144384;27;20141;-37
2022/06/12 03:37:24;;;;;;;0.10;0.10;;;;;;;21.40;50.02;101878.06;5161774;27;20089;-35
2022/06/12 03:39:59;;;;;;;0.10;0.10;;;;;;;21.39;49.86;101877.22;5144434;27;20516;-35
2022/06/12 03:42:34;;;;;;;0.10;0.10;;;;;;;21.39;50.12;101877.22;5151877;27;20504;-35
2022/06/12 03:45:06;;;;;;;0.10;0.10;;;;;;;21.40;49.89;101878.06;5129236;27;20121;-35
2022/06/12 03:47:37;;;;;;;0.10;0.10;;;;;;;21.40;50.06;101875.28;5141956;27;20145;-35
2022/06/12 03:50:32;;;;;;;0.10;0.10;;;;;;;21.40;50.06;101880.84;5125699;27;20542;-36
2022/06/12 03:53:08;;;;;;;0.10;0.10;;;;;;;21.39;50.01;101885.53;5142446;27;20078;-35
2022/06/12 03:58:43;;;;;;;0.10;0.10;;;;;;;21.39;50.05;101887.50;5113536;27;20123;-35
2022/06/12 04:01:08;;;;;;;0.10;0.10;;;;;;;21.38;50.07;101880.28;5126372;27;20405;-34
2022/06/12 04:03:38;;;;;;;0.10;0.10;;;;;;;21.39;50.01;101884.72;5144839;27;20039;-35
2022/06/12 04:06:07;;;;;;;0.20;0.20;;;;;;;21.39;49.94;101887.50;5146716;27;20168;-36
2022/06/12 04:08:39;;;;;;;0.10;0.10;;;;;;;21.39;49.83;101890.25;5144718;27;20083;-35
2022/06/12 04:11:07;;;;;;;0.10;0.10;;;;;;;21.38;49.97;101883.88;5125869;27;20075;-36
2022/06/12 04:13:35;;;;;;;0.10;0.10;;;;;;;21.38;49.93;101891.38;5144745;27;20182;-35
2022/06/12 04:16:05;;;;;;;0.10;0.10;;;;;;;21.38;49.97;101889.44;5139961;27;20090;-35
2022/06/12 04:18:32;;;;;;;0.10;0.10;;;;;;;21.38;50.02;101883.88;5128168;27;20131;-37
2022/06/12 04:21:12;;;;;;;0.10;0.10;;;;;;;21.37;49.88;101884.16;5113681;28;20074;-34
2022/06/12 04:23:45;;;;;;;0.10;0.10;;;;;;;21.38;49.99;101880.28;5109808;28;20109;-35
2022/06/12 04:26:28;;;;;;;0.10;0.10;;;;;;;21.38;49.85;101877.53;5112216;28;20134;-35
2022/06/12 04:29:01;;;;;;;0.10;0.10;;;;;;;21.38;50.11;101883.06;5112002;27;20067;-35
2022/06/12 04:31:32;;;;;;;0.10;0.10;;;;;;;21.37;49.85;101882.19;5130471;28;20083;-35
2022/06/12 04:34:19;;;;;;;0.10;0.10;;;;;;;21.38;49.97;101883.88;5110726;28;20069;-35
2022/06/12 04:36:47;;;;;;;0.20;0.20;;;;;;;21.38;49.93;101894.16;5097928;28;20075;-35
2022/06/12 04:39:14;;;;;;;;;;;;;;;21.38;50.02;101891.38;5096040;28;20043;-35
2022/06/12 04:41:40;;;;;;;0.10;0.10;;;;;;;21.37;49.79;101887.75;5130072;28;20046;-35
2022/06/12 04:44:07;;;;;;;0.30;0.28;;;;;;;21.37;50.12;101892.47;5130023;27;20081;-34
2022/06/12 04:46:34;;;;;;;0.10;0.10;;;;;;;21.38;49.93;101892.19;5112093;28;20050;-35
2022/06/12 04:49:00;;;;;;;0.10;0.10;;;;;;;21.37;49.94;101892.47;5128536;27;20505;-34
2022/06/12 04:51:26;;;;;;;0.10;0.10;;;;;;;21.37;49.88;101886.91;5131259;28;20047;-35
2022/06/12 04:53:52;;;;;;;0.10;0.10;;;;;;;21.36;50.08;101890.78;5129104;28;20137;-37
2022/06/12 04:56:20;;;;;;;0.10;0.10;;;;;;;21.37;50.06;101884.16;5131366;28;20039;-34
2022/06/12 04:58:46;;;;;;;0.10;0.10;;;;;;;21.36;49.81;101883.31;5112012;28;20088;-37
2022/06/12 05:01:12;;;;;;;0.15;0.15;;;;;;;21.37;49.86;101889.69;5130193;28;20043;-36
2022/06/12 05:03:38;;;;;;;0.20;0.20;;;;;;;21.37;50.04;101884.16;5112997;28;20067;-35
2022/06/12 05:06:04;;;;;;;0.10;0.10;;;;;;;21.37;50.00;101887.75;5131484;27;20410;-37
2022/06/12 05:08:31;;;;;;;0.10;0.10;;;;;;;21.37;49.93;101884.97;5130569;28;20088;-35
2022/06/12 05:10:56;;;;;;;0.10;0.10;;;;;;;21.36;49.91;101883.31;5129984;28;20089;-36
2022/06/12 05:13:22;;;;;;;0.10;0.10;;;;;;;21.36;49.83;101876.94;5129013;27;20043;-37
2022/06/12 05:15:48;;;;;;;0.10;0.10;;;;;;;21.37;49.86;101881.38;5129860;28;20134;-36
2022/06/12 05:18:15;;;;;;;0.10;0.10;;;;;;;21.36;49.92;101872.22;5129624;27;20469;-36
2022/06/12 05:20:42;;;;;;;0.20;0.20;;;;;;;21.36;50.00;101877.78;5128521;28;20043;-35
2022/06/12 05:23:13;;;;;;;0.10;0.10;;;;;;;21.36;49.91;101877.78;5112333;28;20050;-35
2022/06/12 05:25:40;;;;;;;0.10;0.10;;;;;;;21.37;49.86;101876.66;5110740;28;20126;-37
2022/06/12 05:28:06;;;;;;;0.10;0.10;;;;;;;21.36;49.92;101885.25;5128364;27;20112;-35
2022/06/12 05:30:34;;;;;;;0.10;0.10;;;;;;;21.38;49.99;101871.97;5130586;28;20462;-35
2022/06/12 05:33:00;;;;;;;0.20;0.20;;;;;;;21.36;49.91;101875.00;5109831;28;20071;-36
2022/06/12 05:35:26;;;;;;;0.10;0.10;;;;;;;21.36;50.05;101883.31;5128747;28;20422;-36
2022/06/12 05:37:52;;;;;;;0.20;0.20;;;;;;;21.36;49.88;101880.53;5110714;28;20082;-35
2022/06/12 05:40:21;;;;;;;0.10;0.10;;;;;;;21.37;50.13;101884.97;5131223;28;20043;-36
2022/06/12 05:42:48;;;;;;;0.10;0.10;;;;;;;21.36;49.95;101880.53;5129443;27;20071;-37
2022/06/12 05:45:18;;;;;;;0.10;0.10;;;;;;;21.37;50.11;101889.69;5128481;28;20134;-36
2022/06/12 05:47:48;;;;;;;0.10;0.10;;;;;;;21.36;49.96;101893.56;5091375;28;20479;-35
2022/06/12 05:50:15;;;;;;;0.10;0.10;;;;;;;21.36;50.04;101891.63;5095592;28;20065;-36
2022/06/12 05:52:41;;;;;;;0.10;0.10;;;;;;;21.36;50.00;101888.03;5111530;27;20078;-35
2022/06/12 05:55:07;;;;;;;0.10;0.10;;;;;;;21.36;49.90;101882.47;5108541;28;20062;-35
2022/06/12 05:57:33;;;;;;;0.10;0.10;;;;;;;21.36;49.97;101894.41;5110311;28;20074;-35
2022/06/12 05:59:59;;;;;;;0.22;0.22;;;;;;;21.36;49.96;101888.03;5130069;28;20095;-35
2022/06/12 06:02:24;;;;;;;0.10;0.10;;;;;;;21.36;49.98;101890.78;5129563;28;20047;-35
2022/06/12 06:04:50;;;;;;;0.10;0.10;;;;;;;21.36;49.84;101893.56;5127275;28;20043;-35
2022/06/12 06:07:16;;;;;;;0.10;0.10;;;;;;;21.36;49.91;101896.34;5128274;27;20047;-36
2022/06/12 06:09:41;;;;;;;0.10;0.10;;;;;;;21.36;49.98;101899.09;5129474;28;20051;-35
2022/06/12 06:12:08;;;;;;;0.10;0.10;;;;;;;21.36;49.88;101899.94;5110439;28;20047;-35
2022/06/12 06:14:33;;;;;;;0.10;0.10;;;;;;;21.35;50.07;101897.44;5128658;27;20130;-35
2022/06/12 06:17:04;;;;;;;0.20;0.20;;;;;;;21.35;49.97;101898.28;5127908;28;20381;-35
2022/06/12 06:19:29;;;;;;;0.10;0.10;;;;;;;21.36;49.84;101902.72;5127954;28;20536;-36
2022/06/12 06:21:56;;;;;;;0.10;0.10;;;;;;;21.34;49.91;101904.94;5129073;28;20049;-36
2022/06/12 06:24:21;;;;;;;0.13;0.13;;;;;;;21.34;49.85;101904.94;5128566;28;20035;-35
2022/06/12 06:26:47;;;;;;;0.10;0.10;;;;;;;21.35;49.91;101900.22;5128890;28;20043;-36
2022/06/12 06:29:13;;;;;;;0.10;0.10;;;;;;;21.36;50.04;101904.66;5127513;28;20047;-35
2022/06/12 06:31:38;;;;;;;0.10;0.10;;;;;;;21.36;50.00;101907.41;5129071;28;20047;-36
2022/06/12 06:34:05;;;;;;;0.10;0.10;;;;;;;21.35;50.02;101897.44;5127836;28;20039;-35
2022/06/12 06:36:31;;;;;;;0.10;0.10;;;;;;;21.35;49.90;101903.81;5109342;28;20089;-35
2022/06/12 06:38:57;;;;;;;0.10;0.10;;;;;;;21.35;49.85;101897.44;5109416;28;20471;-35
2022/06/12 06:41:24;;;;;;;0.10;0.10;;;;;;;21.36;49.91;101907.41;5111328;28;20039;-37
2022/06/12 06:46:36;;;;;;;0.20;0.20;;;;;;;21.35;50.00;101909.38;5111987;28;20035;-37
2022/06/12 06:49:03;;;;;;;0.10;0.10;;;;;;;21.35;49.84;101914.91;5126054;27;20043;-35
2022/06/12 06:51:30;;;;;;;0.17;0.17;;;;;;;21.34;49.99;101909.66;5129473;27;20082;-35
2022/06/12 06:53:56;;;;;;;0.10;0.10;;;;;;;21.34;49.93;101921.56;5128737;27;20071;-35
2022/06/12 06:56:23;;;;;;;0.10;0.10;;;;;;;21.35;49.95;101919.63;5128553;28;20085;-35
2022/06/12 06:58:49;;;;;;;0.10;0.10;;;;;;;21.34;49.93;101924.31;5110896;28;20069;-35
2022/06/12 07:01:14;;;;;;;0.10;0.10;;;;;;;21.34;49.92;101926.28;5110303;28;20078;-35
2022/06/12 07:03:42;;;;;;;0.10;0.10;;;;;;;21.34;49.96;101929.88;5128728;28;20048;-35
2022/06/12 07:06:10;;;;;;;0.10;0.10;;;;;;;21.35;49.92;101927.94;5127226;28;20255;-35
2022/06/12 07:08:36;;;;;;;;;;;;;;;21.34;49.85;101926.28;5128055;28;20081;-36
2022/06/12 07:11:02;;;;;;;0.10;0.10;;;;;;;21.34;49.93;101920.72;5128533;28;19919;-36
2022/06/12 07:13:27;;;;;;;0.10;0.10;;;;;;;21.34;49.83;101923.50;5127725;28;20043;-35
2022/06/12 07:15:54;;;;;;;0.10;0.10;;;;;;;21.33;49.94;101919.91;5128442;28;20053;-35
2022/06/12 07:18:20;;;;;;;0.20;0.20;;;;;;;21.33;50.07;101925.44;5126116;28;20138;-35
2022/06/12 07:20:52;;;;;;;0.10;0.10;;;;;;;21.35;49.99;101922.38;5092893;28;20561;-35
2022/06/12 07:23:19;;;;;;;0.20;0.20;;;;;;;21.35;50.10;101919.63;5108824;28;20082;-35
2022/06/12 07:25:49;;;;;;;0.10;0.10;;;;;;;21.35;49.89;101916.84;5109460;28;20161;-35
2022/06/12 07:28:15;;;;;;;0.10;0.10;;;;;;;21.34;49.97;101918.78;5126526;28;20514;-34
2022/06/12 07:30:41;;;;;;;0.30;0.30;;;;;;;21.34;50.02;101917.97;5127408;28;20522;-35
2022/06/12 07:33:08;;;;;;;0.10;0.10;;;;;;;21.34;49.80;101917.97;5127937;28;20051;-37
2022/06/12 07:35:35;;;;;;;0.10;0.10;;;;;;;21.34;50.07;101923.50;5127595;27;20074;-36
2022/06/12 07:38:01;;;;;;;0.10;0.10;;;;;;;21.34;50.14;101926.28;5110039;28;20465;-35
2022/06/12 07:40:33;;;;;;;0.10;0.10;;;;;;;21.34;49.85;101916.00;5097833;28;20512;-35
2022/06/12 07:42:59;;;;;;;0.20;0.20;;;;;;;21.33;49.93;101922.66;5109193;28;20139;-36
2022/06/12 07:45:25;;;;;;;0.20;0.20;;;;;;;21.34;49.90;101915.19;5126791;27;20051;-34
2022/06/12 07:47:51;;;;;;;0.10;0.10;;;;;;;21.33;49.94;101917.13;5110818;27;20503;-36
2022/06/12 07:50:17;;;;;;;0.10;0.10;;;;;;;21.34;50.04;101920.72;5128221;27;20043;-35
2022/06/12 07:52:44;;;;;;;0.20;0.20;;;;;;;21.34;50.00;101918.78;5130449;28;20526;-34
2022/06/12 07:55:13;;;;;;;0.20;0.20;;;;;;;21.34;49.97;101920.72;5098319;28;20544;-35
2022/06/12 07:57:40;;;;;;;0.10;0.10;;;;;;;21.34;49.91;101921.56;5130096;28;20043;-35
2022/06/12 08:00:07;;;;;;;0.10;0.10;;;;;;;21.34;49.94;101917.97;5112921;28;20125;-34
2022/06/12 08:02:32;;;;;;;0.10;0.10;;;;;;;21.33;49.94;101919.91;5131350;28;20043;-35
2022/06/12 08:04:58;;;;;;;0.10;0.10;;;;;;;21.35;49.95;101920.44;5130562;28;20385;-36
2022/06/12 08:07:24;;;;;;;0.10;0.10;;;;;;;21.34;49.98;101926.28;5130812;27;20046;-37
2022/06/12 08:09:50;;;;;;;0.10;0.10;;;;;;;21.34;49.99;101924.31;5130722;28;20047;-35
2022/06/12 08:12:15;;;;;;;0.10;0.10;;;;;;;21.34;49.70;101927.09;5131271;27;20091;-34
2022/06/12 08:14:41;;;;;;;0.10;0.10;;;;;;;21.35;49.82;101925.16;5129150;28;20043;-35
2022/06/12 08:17:07;;;;;;;0.20;0.20;;;;;;;21.34;49.99;101926.28;5130833;27;20058;-37
2022/06/12 08:22:19;;;;;;;0.10;0.10;;;;;;;21.34;50.00;101923.50;5101511;28;20465;-35
2022/06/12 08:24:45;;;;;;;0.10;0.10;;;;;;;21.34;50.01;101917.97;5129258;27;20152;-35
2022/06/12 08:27:11;;;;;;;0.10;0.10;;;;;;;21.34;49.99;101929.88;5113502;28;20482;-35
2022/06/12 08:29:37;;;;;;;0.10;0.10;;;;;;;21.34;49.99;101926.28;5130187;28;20035;-36
2022/06/12 08:32:06;;;;;;;0.10;0.10;;;;;;;21.34;49.99;101929.03;5113074;28;20436;-35
2022/06/12 08:34:35;;;;;;;0.10;0.10;;;;;;;21.35;50.04;101922.38;5111614;28;20226;-36
2022/06/12 08:37:10;;;;;;;0.10;0.10;;;;;;;21.33;49.83;101922.66;5112490;28;20062;-35
2022/06/12 08:39:35;;;;;;;0.10;0.10;;;;;;;21.34;49.97;101924.31;5112159;28;20493;-35
2022/06/12 08:42:11;;;;;;;0.10;0.10;;;;;;;21.34;50.07;101917.97;5130071;28;20074;-35
2022/06/12 08:44:49;;;;;;;0.20;0.20;;;;;;;21.34;49.97;101915.19;5112194;28;20089;-35
2022/06/12 08:47:25;;;;;;;0.10;0.10;;;;;;;21.34;49.96;101915.19;5092591;28;20047;-34
2022/06/12 08:49:57;;;;;;;0.10;0.10;;;;;;;21.34;50.05;101904.09;5128884;28;20067;-35
2022/06/12 08:52:33;;;;;;;0.10;0.10;;;;;;;21.33;49.97;101908.81;5110948;28;20152;-34
2022/06/12 08:55:15;;;;;;;0.10;0.10;;;;;;;21.34;49.84;101904.09;5109778;28;20086;-34
2022/06/12 08:57:49;;;;;;;0.10;0.10;;;;;;;21.33;49.91;101902.41;5111429;28;20094;-37
2022/06/12 09:00:20;;;;;;;0.10;0.10;;;;;;;21.34;50.05;101902.16;5112142;28;20247;-35
2022/06/12 09:02:46;;;;;;;0.10;0.10;;;;;;;21.34;49.85;101906.88;5112604;28;20076;-35
2022/06/12 09:05:16;;;;;;;0.10;0.10;;;;;;;21.34;49.92;101906.88;5109998;28;20044;-34
2022/06/12 09:07:50;;;;;;;0.10;0.10;;;;;;;21.34;49.86;101893.03;5110601;28;20040;-37
2022/06/12 09:10:45;;;;;;;0.10;0.10;;;;;;;21.33;50.05;101897.72;5130617;27;20079;-35
2022/06/12 09:13:30;;;;;;;0.10;0.10;;;;;;;21.34;49.85;101890.25;5109831;28;20462;-35
2022/06/12 09:16:05;;;;;;;0.10;0.10;;;;;;;21.34;50.01;101884.72;5113374;28;20477;-36
2022/06/12 09:18:45;;;;;;;0.10;0.10;;;;;;;21.34;49.91;101879.16;5110444;28;20094;-35
2022/06/12 09:21:27;;;;;;;0.10;0.10;;;;;;;21.33;49.90;101880.25;5112371;28;20126;-35
2022/06/12 09:29:37;;;;;;;0.10;0.10;;;;;;;21.34;49.87;101877.22;5161881;27;20126;-32
2022/06/12 09:32:16;;;;;;;0.20;0.20;;;;;;;21.34;49.98;101879.16;5164752;27;20130;-34
2022/06/12 09:38:26;;;;;;;0.10;0.10;;;;;;;21.34;49.93;101873.63;5175011;27;20124;-34
2022/06/12 09:41:07;;;;;;;0.10;0.10;;;;;;;21.33;49.86;101875.56;5149480;27;20147;-34
2022/06/12 09:43:39;;;;;;;0.10;0.10;;;;;;;21.34;50.05;101871.69;5142445;27;20179;-33
2022/06/12 09:46:15;;;;;;;0.10;0.10;;;;;;;21.33;49.96;101870.03;5135526;27;20101;-34
2022/06/12 09:49:20;;;;;;;0.20;0.20;;;;;;;21.35;50.05;101869.75;5140080;27;20058;-34
2022/06/12 09:52:11;;;;;;;0.20;0.20;;;;;;;21.34;49.98;101868.91;5144297;27;20075;-34
2022/06/12 09:57:38;;;;;;;0.10;0.10;;;;;;;21.34;49.90;101857.00;5165092;27;20212;-32
2022/06/12 10:00:10;;;;;;;0.10;0.10;;;;;;;21.34;49.94;101854.22;5144385;27;20077;-32
2022/06/12 10:03:01;;;;;;;0.10;0.10;;;;;;;21.34;50.01;101857.84;5146187;27;20085;-33
2022/06/12 10:05:54;;;;;;;0.10;0.10;;;;;;;21.33;49.83;101861.72;5134416;27;20137;-32
2022/06/12 10:08:43;;;;;;;0.10;0.10;;;;;;;21.33;49.89;101864.47;5125607;27;20476;-34
2022/06/12 10:11:15;;;;;;;0.10;0.10;;;;;;;21.34;49.98;101860.59;5144909;27;20126;-33
2022/06/12 10:13:57;;;;;;;0.10;0.10;;;;;;;21.33;49.74;101858.94;5151760;27;20095;-32
2022/06/12 10:16:30;;;;;;;0.10;0.10;;;;;;;21.35;49.96;101855.88;5128345;27;20097;-34
2022/06/12 10:19:21;;;;;;;0.10;0.10;;;;;;;21.33;50.08;101864.47;5116350;27;20058;-34
2022/06/12 10:21:50;;;;;;;0.10;0.10;;;;;;;21.34;50.08;101854.22;5127836;27;20085;-34
2022/06/12 10:24:18;;;;;;;0.20;0.20;;;;;;;21.34;50.06;101855.06;5130114;27;20074;-33
2022/06/12 10:27:05;;;;;;;0.10;0.10;;;;;;;21.34;50.02;101857.84;5131822;27;20078;-34
2022/06/12 10:32:28;;;;;;;0.10;0.10;;;;;;;21.34;49.96;101851.47;5179286;27;20200;-32
2022/06/12 10:35:12;;;;;;;0.10;0.10;;;;;;;21.34;49.90;101841.22;5161018;27;20070;-32
2022/06/12 10:37:38;;;;;;;0.10;0.10;;;;;;;21.34;49.96;101845.91;5144197;27;20070;-32
2022/06/12 10:40:09;;;;;;;0.43;0.32;;;;;;;21.35;49.91;101847.56;5162095;27;20057;-32
2022/06/12 10:42:42;;;;;;;0.10;0.10;;;;;;;21.36;50.05;101838.16;5163544;27;20515;-33
2022/06/12 10:45:20;;;;;;;0.10;0.10;;;;;;;21.35;49.83;101829.00;5142022;27;20137;-32
2022/06/12 10:47:46;;;;;;;0.10;0.10;;;;;;;21.34;49.90;101835.66;5158135;27;20046;-32
2022/06/12 10:52:51;;;;;;;0.30;0.30;;;;;;;21.36;50.10;101829.84;5174857;27;20648;-32
2022/06/12 10:55:19;;;;;;;0.10;0.10;;;;;;;21.35;49.91;101822.63;5161892;27;20046;-32
2022/06/12 10:57:51;;;;;;;0.10;0.10;;;;;;;21.36;49.89;101818.75;5156581;27;20539;-32
2022/06/12 11:00:20;;;;;;;0.10;0.10;;;;;;;21.35;50.01;101811.56;5125421;27;20066;-32
2022/06/12 11:03:23;;;;;;;0.10;0.10;;;;;;;21.35;49.97;101820.69;5145335;27;20043;-32
2022/06/12 11:06:03;;;;;;;0.10;0.10;;;;;;;21.34;49.92;101819.03;5140716;27;20130;-32
2022/06/12 11:08:58;;;;;;;0.10;0.10;;;;;;;21.35;50.02;101822.63;5143706;27;20089;-32
2022/06/12 11:11:35;;;;;;;0.10;0.10;;;;;;;21.36;49.81;101815.97;5139380;27;20138;-32
2022/06/12 11:14:12;;;;;;;0.10;0.10;;;;;;;21.36;49.90;101804.91;5158129;27;20125;-32
2022/06/12 11:17:17;;;;;;;0.10;0.10;;;;;;;21.35;49.93;101815.16;5158298;27;20473;-33
2022/06/12 11:19:56;;;;;;;0.10;0.10;;;;;;;21.35;49.92;101817.94;5140565;27;20089;-32
2022/06/12 11:22:32;;;;;;;0.10;0.10;;;;;;;21.36;49.99;101807.66;5153079;27;20108;-32
2022/06/12 11:25:16;;;;;;;0.10;0.10;;;;;;;21.36;49.89;101808.50;5152664;27;20538;-32
2022/06/12 11:28:14;;;;;;;0.10;0.10;;;;;;;21.35;49.80;101809.63;5159789;27;20089;-32
2022/06/12 11:31:02;;;;;;;0.10;0.10;;;;;;;21.36;49.76;101804.91;5142616;27;20074;-32
2022/06/12 11:33:42;;;;;;;0.10;0.10;;;;;;;21.36;49.93;101802.13;5143209;27;20093;-32
2022/06/12 11:36:20;;;;;;;0.10;0.10;;;;;;;21.35;49.84;101800.47;5152600;27;20103;-32
2022/06/12 11:39:13;;;;;;;0.10;0.10;;;;;;;21.36;49.76;101807.66;5138874;27;20413;-33
2022/06/12 11:41:57;;;;;;;0.10;0.10;;;;;;;21.36;49.67;101802.97;5139438;27;20051;-32
2022/06/12 11:44:36;;;;;;;0.10;0.10;;;;;;;21.36;49.92;101802.97;5162344;27;20074;-32
2022/06/12 11:47:41;;;;;;;0.10;0.10;;;;;;;21.36;49.92;101796.59;5141026;27;20247;-34
2022/06/12 11:50:19;;;;;;;0.10;0.10;;;;;;;21.37;49.91;101795.47;5149657;27;20091;-32
2022/06/12 11:53:11;;;;;;;0.10;0.10;;;;;;;21.37;49.89;101799.06;5164031;27;20516;-34
2022/06/12 11:55:44;;;;;;;0.10;0.10;;;;;;;21.36;49.83;101797.41;5148543;27;21115;-32
2022/06/12 11:58:19;;;;;;;0.10;0.10;;;;;;;21.36;49.82;101789.09;5143739;27;20145;-32
2022/06/12 12:01:25;;;;;;;0.10;0.10;;;;;;;21.37;49.82;101796.31;5159508;27;20074;-32
2022/06/12 12:04:11;;;;;;;0.10;0.10;;;;;;;21.36;49.70;101791.03;5136460;27;20195;-32
2022/06/12 12:06:47;;;;;;;0.10;0.10;;;;;;;21.36;49.96;101789.09;5145139;27;20481;-32
2022/06/12 12:09:36;;;;;;;0.10;0.10;;;;;;;21.37;49.73;101790.75;5144648;27;20078;-33
2022/06/12 12:12:09;;;;;;;0.10;0.10;;;;;;;21.36;49.78;101782.72;5134917;27;20129;-32
2022/06/12 12:14:41;;;;;;;0.20;0.20;;;;;;;21.37;49.87;101788.00;5131831;27;20047;-32
2022/06/12 12:17:25;;;;;;;0.10;0.10;;;;;;;21.38;49.78;101783.31;5147738;27;20122;-32
2022/06/12 12:20:02;;;;;;;0.10;0.10;;;;;;;21.38;49.87;101777.75;5142727;27;20047;-33
2022/06/12 12:22:48;;;;;;;0.20;0.20;;;;;;;21.37;49.77;101778.84;5148493;27;20125;-32
2022/06/12 12:25:21;;;;;;;0.10;0.10;;;;;;;21.37;50.05;101778.84;5129745;27;20089;-32
2022/06/12 12:27:49;;;;;;;0.10;0.10;;;;;;;21.36;49.87;101775.25;5130341;27;20074;-32